Time;durP1;ratioP1;P1;durP2;ratioP2;P2;SDS_P1;SDS_P2;PMS_P1;PMS_P2;Temp;Humidity;BMP_temperature;BMP_pressure;BME280_temperature;BME280_humidity;BME280_pressure;Samples;Min_cycle;Max_cycle;Signal;HPM_P1;HPM_P2
2022/01/26 00:06:39;;;;;;;2.97;2.87;;;;;;;1.98;86.85;102846.44;4433071;32;20083;-75
2022/01/26 00:09:05;;;;;;;2.80;2.70;;;;;;;1.49;86.67;102763.56;4422236;32;20079;-75
2022/01/26 00:11:31;;;;;;;2.80;2.70;;;;;;;1.93;86.56;102841.16;4406579;32;20072;-75
2022/01/26 00:13:58;;;;;;;7.03;3.87;;;;;;;1.92;86.37;102842.00;4419215;32;20072;-75
2022/01/26 00:16:28;;;;;;;3.83;3.62;;;;;;;1.73;86.42;102801.97;4414928;32;20980;-73
2022/01/26 00:18:58;;;;;;;4.45;4.25;;;;;;;1.97;86.48;102839.50;4407811;32;20476;-73
2022/01/26 00:21:47;;;;;;;2.92;2.83;;;;;;;1.88;86.84;102819.50;4424164;32;20203;-73
2022/01/26 00:24:26;;;;;;;2.90;2.80;;;;;;;1.84;86.47;102816.81;4426400;32;20149;-75
2022/01/26 00:29:24;;;;;;;3.00;2.90;;;;;;;1.76;86.99;102832.22;4434952;32;20069;-74
2022/01/26 00:40:25;;;;;;;2.80;2.70;;;;;;;1.88;87.43;102842.78;4421762;32;20734;-75
2022/01/26 00:42:54;;;;;;;4.35;4.15;;;;;;;1.67;87.66;102803.59;4411133;32;20076;-74
2022/01/26 00:45:24;;;;;;;3.87;3.47;;;;;;;1.93;87.82;102845.47;4409756;32;20061;-75
2022/01/26 00:47:49;;;;;;;4.75;4.55;;;;;;;1.95;86.51;102833.44;4428902;32;20130;-74
2022/01/26 00:50:15;;;;;;;2.90;2.80;;;;;;;1.97;87.61;102835.19;4406226;32;20052;-73
2022/01/26 00:52:44;;;;;;;4.18;4.00;;;;;;;1.39;87.38;102733.19;4393978;32;20424;-74
2022/01/26 00:55:12;;;;;;;3.53;2.95;;;;;;;1.71;87.63;102787.28;4398526;32;20590;-74
2022/01/26 00:57:37;;;;;;;2.90;2.80;;;;;;;1.97;87.37;102832.63;4393394;32;20077;-74
2022/01/26 01:00:05;;;;;;;3.60;3.45;;;;;;;1.73;87.40;102803.69;4415162;32;20692;-74
2022/01/26 01:02:32;;;;;;;3.75;3.55;;;;;;;2.03;87.54;102842.22;4409245;32;20107;-75
2022/01/26 01:05:00;;;;;;;3.00;2.90;;;;;;;2.06;87.27;102825.84;4405808;32;20376;-74
2022/01/26 01:07:26;;;;;;;2.80;2.70;;;;;;;1.71;87.44;102774.31;4418203;32;20511;-74
2022/01/26 01:09:51;;;;;;;4.68;4.47;;;;;;;1.96;87.60;102814.44;4418938;32;20071;-74
2022/01/26 01:12:16;;;;;;;3.40;3.30;;;;;;;2.09;86.76;102842.31;4418574;32;20091;-75
2022/01/26 01:14:44;;;;;;;4.22;4.03;;;;;;;1.91;86.48;102816.97;4407285;32;20133;-74
2022/01/26 01:17:19;;;;;;;4.25;4.05;;;;;;;1.84;86.74;102809.06;4420669;32;20408;-74
2022/01/26 01:20:02;;;;;;;3.80;3.67;;;;;;;1.95;86.39;102823.94;4421934;32;20620;-74
2022/01/26 01:22:45;;;;;;;3.70;3.40;;;;;;;1.87;86.33;102824.66;4409064;32;20129;-75
2022/01/26 01:27:49;;;;;;;3.28;3.17;;;;;;;1.56;86.55;102769.72;4415079;32;20086;-74
2022/01/26 01:33:32;;;;;;;3.80;3.65;;;;;;;1.90;86.63;102835.91;4421624;32;20064;-74
2022/01/26 01:35:31;;;;;;;2.95;2.85;;;;;;;1.94;87.07;102845.50;4414391;32;20557;-73
2022/01/26 01:37:57;;;;;;;4.18;3.97;;;;;;;1.88;87.24;102834.16;4417313;32;21070;-73
2022/01/26 01:40:22;;;;;;;3.45;3.35;;;;;;;1.89;86.86;102841.09;4422533;32;20064;-74
2022/01/26 01:42:47;;;;;;;5.15;4.85;;;;;;;1.91;86.77;102842.88;4416536;32;20087;-74
2022/01/26 01:45:13;;;;;;;3.50;3.40;;;;;;;1.88;86.43;102849.69;4409231;32;20075;-74
2022/01/26 01:47:38;;;;;;;3.53;3.42;;;;;;;1.86;86.14;102841.03;4402632;32;20575;-75
2022/01/26 01:50:08;;;;;;;3.10;3.00;;;;;;;1.73;86.14;102812.31;4420239;32;20103;-73
2022/01/26 01:52:34;;;;;;;2.62;2.53;;;;;;;1.96;86.08;102841.22;4408062;32;20083;-74
2022/01/26 01:55:03;;;;;;;3.40;3.30;;;;;;;1.44;85.48;102760.00;4406776;32;20149;-74
2022/01/26 01:57:29;;;;;;;5.03;4.62;;;;;;;1.68;85.32;102794.97;4425866;32;20867;-74
2022/01/26 01:59:54;;;;;;;4.25;4.05;;;;;;;1.74;84.42;102813.19;4409511;32;20069;-74
2022/01/26 02:02:19;;;;;;;3.60;3.47;;;;;;;1.88;84.71;102829.84;4420507;32;20056;-75
2022/01/26 02:04:45;;;;;;;3.97;3.78;;;;;;;1.86;84.22;102825.50;4407899;32;20072;-74
2022/01/26 02:07:11;;;;;;;3.62;3.42;;;;;;;1.81;84.14;102830.59;4422509;32;20450;-74
2022/01/26 02:09:37;;;;;;;3.37;3.25;;;;;;;1.41;84.93;102770.31;4424417;32;20092;-73
2022/01/26 02:12:11;;;;;;;2.80;2.70;;;;;;;1.75;84.99;102821.00;4412038;32;20654;-73
2022/01/26 02:14:41;;;;;;;4.57;4.37;;;;;;;1.75;84.90;102809.78;4413966;32;20068;-73
2022/01/26 02:17:19;;;;;;;6.37;4.25;;;;;;;1.59;84.43;102799.13;4424390;32;20065;-75
2022/01/26 02:52:43;;;;;;;3.90;3.60;;;;;;;1.34;86.34;102735.72;4419661;32;20069;-74
2022/01/26 02:57:46;;;;;;;3.00;2.90;;;;;;;1.79;86.24;102788.28;4418788;32;20079;-73
2022/01/26 03:02:50;;;;;;;2.97;2.87;;;;;;;1.73;86.37;102795.94;4421040;32;20122;-73
2022/01/26 03:05:18;;;;;;;2.78;2.67;;;;;;;1.65;86.49;102776.81;4428639;32;20081;-73
2022/01/26 03:07:51;;;;;;;5.25;4.95;;;;;;;1.49;86.72;102768.75;4408577;32;20114;-73
2022/01/26 03:10:23;;;;;;;2.83;2.72;;;;;;;1.59;86.87;102773.25;4424636;32;20096;-75
2022/01/26 03:13:03;;;;;;;5.35;5.00;;;;;;;1.09;86.78;102684.34;4420986;32;20073;-74
2022/01/26 03:15:41;;;;;;;4.40;3.92;;;;;;;1.67;87.51;102781.16;4418449;32;20068;-75
2022/01/26 03:20:52;;;;;;;5.15;4.95;;;;;;;1.66;87.05;102776.81;4420233;32;22012;-73
2022/01/26 03:32:11;;;;;;;3.62;3.20;;;;;;;1.72;86.72;102763.97;4401792;32;20065;-73
2022/01/26 03:34:25;;;;;;;2.70;2.60;;;;;;;1.67;86.74;102755.28;4418933;32;20869;-74
2022/01/26 03:36:57;;;;;;;4.85;4.65;;;;;;;1.70;87.10;102768.25;4403957;32;20313;-73
2022/01/26 03:39:24;;;;;;;3.87;3.67;;;;;;;1.76;86.91;102754.56;4394631;32;20416;-74
2022/01/26 03:41:55;;;;;;;5.05;4.85;;;;;;;1.71;86.59;102751.03;4414994;32;20722;-73
2022/01/26 03:44:20;;;;;;;2.70;2.60;;;;;;;0.62;86.11;102561.09;4409475;32;20341;-73
2022/01/26 03:46:47;;;;;;;8.05;6.00;;;;;;;1.73;86.35;102736.41;4407360;32;20660;-75
2022/01/26 03:49:12;;;;;;;3.72;3.55;;;;;;;1.68;86.72;102741.47;4398963;32;20076;-73
2022/01/26 03:51:38;;;;;;;3.37;3.28;;;;;;;1.42;86.48;102696.16;4407649;32;20072;-73
2022/01/26 03:54:03;;;;;;;2.78;2.67;;;;;;;1.52;86.59;102706.69;4415717;32;20091;-74
2022/01/26 03:56:29;;;;;;;3.83;3.62;;;;;;;1.18;86.27;102674.16;4408549;32;20141;-74
2022/01/26 03:58:54;;;;;;;7.47;5.47;;;;;;;1.53;86.53;102721.37;4409566;32;20122;-75
2022/01/26 04:01:19;;;;;;;2.80;2.70;;;;;;;1.68;86.18;102740.59;4405717;32;20179;-74
2022/01/26 04:03:45;;;;;;;6.15;4.57;;;;;;;1.37;86.30;102704.72;4404350;32;20118;-74
2022/01/26 04:06:10;;;;;;;8.38;4.62;;;;;;;1.33;85.63;102692.56;4398905;32;21813;-74
2022/01/26 04:08:38;;;;;;;3.17;3.08;;;;;;;1.66;85.56;102737.12;4387244;32;20061;-73
2022/01/26 04:13:29;;;;;;;2.78;2.67;;;;;;;0.11;86.26;102489.53;4396467;32;20170;-74
2022/01/26 04:15:54;;;;;;;6.95;4.65;;;;;;;1.44;87.18;102730.69;4417144;32;20119;-74
2022/01/26 04:18:26;;;;;;;2.90;2.80;;;;;;;1.48;86.85;102725.59;4412745;32;20587;-75
2022/01/26 04:20:55;;;;;;;5.00;4.80;;;;;;;1.23;86.57;102674.28;4393664;32;20298;-74
2022/01/26 04:25:46;;;;;;;5.28;4.87;;;;;;;1.65;87.17;102767.31;4417886;32;20068;-74
2022/01/26 04:28:18;;;;;;;6.65;6.20;;;;;;;1.25;86.74;102688.09;4421478;32;20718;-74
2022/01/26 04:30:44;;;;;;;5.45;5.05;;;;;;;1.72;86.82;102756.22;4427397;32;20094;-74
2022/01/26 04:33:09;;;;;;;5.72;3.40;;;;;;;1.10;85.80;102661.13;4409778;32;20060;-74
2022/01/26 04:35:34;;;;;;;3.00;2.90;;;;;;;0.71;84.75;102597.47;4412811;32;20108;-73
2022/01/26 04:40:36;;;;;;;6.10;3.55;;;;;;;1.65;84.87;102756.09;4424933;32;20077;-74
2022/01/26 04:43:06;;;;;;;3.40;3.28;;;;;;;1.62;84.98;102758.63;4424211;32;20115;-73
2022/01/26 04:45:31;;;;;;;3.75;3.55;;;;;;;1.66;85.57;102758.69;4410413;32;20115;-73
2022/01/26 04:47:57;;;;;;;3.78;3.58;;;;;;;1.57;85.27;102746.47;4425119;32;20055;-73
2022/01/26 04:50:22;;;;;;;3.30;3.20;;;;;;;1.68;85.78;102763.91;4408973;32;20072;-74
2022/01/26 04:52:48;;;;;;;4.90;4.70;;;;;;;1.74;86.00;102767.47;4420816;32;20589;-74
2022/01/26 04:55:13;;;;;;;3.30;3.10;;;;;;;1.27;85.96;102691.59;4412388;32;20092;-73
2022/01/26 04:57:39;;;;;;;3.80;3.60;;;;;;;1.43;86.35;102722.06;4408644;32;20122;-74
2022/01/26 05:00:06;;;;;;;4.47;4.28;;;;;;;1.43;86.03;102713.44;4422612;32;20092;-73
2022/01/26 05:02:31;;;;;;;3.60;3.40;;;;;;;1.66;85.65;102770.75;4413128;32;20714;-74
2022/01/26 05:04:56;;;;;;;3.97;3.78;;;;;;;1.25;86.54;102714.84;4426151;32;20079;-73
2022/01/26 05:07:22;;;;;;;4.07;3.87;;;;;;;1.39;86.66;102740.97;4408356;32;20586;-75
2022/01/26 05:09:47;;;;;;;4.72;4.53;;;;;;;0.37;87.01;102578.72;4421938;32;20118;-73
2022/01/26 05:12:14;;;;;;;3.45;3.35;;;;;;;1.18;87.41;102723.31;4411901;32;20123;-75
2022/01/26 05:14:41;;;;;;;2.92;2.83;;;;;;;1.67;86.91;102788.91;4414037;32;20075;-73
2022/01/26 05:17:06;;;;;;;2.70;2.60;;;;;;;1.62;86.62;102790.53;4436496;32;20068;-75
2022/01/26 05:19:32;;;;;;;2.80;2.70;;;;;;;1.50;85.99;102762.72;4409718;32;20865;-75
2022/01/26 05:21:58;;;;;;;3.50;3.40;;;;;;;1.22;86.13;102725.09;4421311;32;20096;-76
2022/01/26 05:24:23;;;;;;;3.40;3.30;;;;;;;1.53;85.82;102799.00;4424742;32;20187;-76
2022/01/26 05:26:49;;;;;;;4.78;4.57;;;;;;;1.50;85.80;102804.09;4407931;32;20134;-74
2022/01/26 05:29:14;;;;;;;3.05;2.95;;;;;;;1.46;86.37;102817.84;4395444;32;20068;-74
2022/01/26 05:31:39;;;;;;;2.90;2.80;;;;;;;1.27;86.67;102789.88;4399352;32;21337;-76
2022/01/26 05:34:06;;;;;;;2.72;2.62;;;;;;;1.21;86.20;102795.78;4398547;32;20088;-75
2022/01/26 05:36:32;;;;;;;2.70;2.60;;;;;;;0.99;86.84;102747.94;4389260;32;20081;-75
2022/01/26 05:38:57;;;;;;;2.90;2.80;;;;;;;1.46;86.61;102815.25;4388092;32;20109;-73
2022/01/26 05:41:22;;;;;;;2.85;2.60;;;;;;;0.87;87.01;102724.41;4401021;32;20065;-75
2022/01/26 05:43:48;;;;;;;3.55;3.35;;;;;;;1.46;86.73;102811.78;4397937;32;20854;-74
2022/01/26 05:46:59;;;;;;;2.97;2.87;;;;;;;1.54;86.82;102823.16;4389019;32;20161;-76
2022/01/26 05:48:59;;;;;;;3.47;3.10;;;;;;;1.31;87.14;102823.59;4402080;32;20150;-74
2022/01/26 05:51:26;;;;;;;2.65;2.55;;;;;;;1.38;87.29;102815.12;4388947;32;20092;-75
2022/01/26 05:53:52;;;;;;;4.95;4.75;;;;;;;0.86;87.31;102727.84;4386552;32;20061;-73
2022/01/26 05:56:17;;;;;;;2.60;2.50;;;;;;;1.32;87.09;102789.13;4392348;32;20072;-73
2022/01/26 05:58:42;;;;;;;4.10;3.92;;;;;;;0.16;87.13;102596.34;4401144;32;20487;-74
2022/01/26 06:01:08;;;;;;;3.12;3.03;;;;;;;0.91;86.55;102721.91;4394117;32;20322;-74
2022/01/26 06:03:33;;;;;;;3.25;3.15;;;;;;;1.35;86.91;102794.34;4404293;32;20159;-74
2022/01/26 06:05:59;;;;;;;2.80;2.70;;;;;;;1.27;87.11;102790.75;4405987;32;20978;-74
2022/01/26 06:08:24;;;;;;;3.37;3.28;;;;;;;1.38;87.34;102802.19;4402782;32;20506;-74
2022/01/26 06:10:50;;;;;;;4.87;4.68;;;;;;;0.92;87.13;102721.09;4401107;32;20096;-74
2022/01/26 06:13:16;;;;;;;3.50;3.35;;;;;;;1.38;87.44;102790.94;4389394;32;22157;-73
2022/01/26 06:15:41;;;;;;;3.62;3.50;;;;;;;1.14;87.16;102762.88;4404285;32;20080;-74
2022/01/26 06:18:08;;;;;;;3.85;3.65;;;;;;;1.30;87.23;102777.84;4399862;32;20107;-74
2022/01/26 06:20:33;;;;;;;3.03;2.90;;;;;;;0.73;87.62;102667.28;4392105;32;20398;-73
2022/01/26 06:22:59;;;;;;;3.80;3.60;;;;;;;1.31;87.38;102761.50;4391752;32;20240;-74
2022/01/26 06:25:24;;;;;;;3.30;3.20;;;;;;;1.11;87.73;102703.34;4411584;32;20069;-73
2022/01/26 06:27:52;;;;;;;2.70;2.60;;;;;;;1.44;87.54;102746.22;4406137;32;21060;-76
2022/01/26 06:30:17;;;;;;;4.03;3.75;;;;;;;1.24;87.78;102712.22;4405746;32;20965;-75
2022/01/26 06:32:43;;;;;;;4.75;4.55;;;;;;;0.78;87.15;102682.03;4402206;32;20142;-75
2022/01/26 06:35:08;;;;;;;8.63;4.87;;;;;;;1.38;87.86;102785.78;4422287;32;20601;-75
2022/01/26 06:37:34;;;;;;;3.72;3.53;;;;;;;1.37;87.75;102771.97;4403910;32;20827;-76
2022/01/26 06:39:59;;;;;;;3.00;2.90;;;;;;;1.27;87.67;102764.00;4416894;32;20591;-74
2022/01/26 06:42:29;;;;;;;2.80;2.70;;;;;;;1.35;87.95;102791.75;4405068;32;20075;-74
2022/01/26 06:45:13;;;;;;;4.68;4.47;;;;;;;1.34;88.33;102783.97;4405954;32;20092;-74
2022/01/26 06:50:23;;;;;;;2.85;2.75;;;;;;;0.22;88.46;102608.50;4420353;32;20977;-75
2022/01/26 06:52:48;;;;;;;4.95;4.75;;;;;;;0.94;88.62;102788.31;4404525;32;20336;-75
2022/01/26 06:55:14;;;;;;;3.45;3.35;;;;;;;1.38;88.47;102804.78;4408813;32;20152;-74
2022/01/26 06:57:40;;;;;;;3.28;3.17;;;;;;;1.37;88.27;102786.63;4408105;32;20452;-74
2022/01/26 07:00:06;;;;;;;3.00;2.90;;;;;;;1.32;88.16;102788.22;4403566;32;20459;-75
2022/01/26 07:02:31;;;;;;;3.08;2.97;;;;;;;1.41;88.33;102784.97;4405670;32;20079;-75
2022/01/26 07:04:56;;;;;;;4.07;3.87;;;;;;;1.42;88.18;102790.16;4416901;32;20498;-72
2022/01/26 07:07:22;;;;;;;3.60;3.40;;;;;;;0.87;88.35;102688.22;4427679;32;20095;-75
2022/01/26 07:09:47;;;;;;;4.93;4.72;;;;;;;1.43;88.17;102791.06;4402580;32;20064;-74
2022/01/26 07:12:13;;;;;;;3.35;3.22;;;;;;;1.31;88.87;102768.41;4392230;32;20132;-73
2022/01/26 07:22:50;;;;;;;4.85;4.65;;;;;;;1.50;88.92;102760.12;4402082;32;20078;-74
2022/01/26 07:25:16;;;;;;;3.67;3.58;;;;;;;0.42;88.59;102590.84;4404589;32;20455;-74
2022/01/26 07:27:42;;;;;;;4.05;3.90;;;;;;;1.32;88.85;102764.94;4404230;32;20138;-74
2022/01/26 07:30:08;;;;;;;3.85;3.65;;;;;;;1.28;88.66;102769.19;4415932;32;20540;-74
2022/01/26 07:32:36;;;;;;;3.20;3.10;;;;;;;1.31;88.11;102765.81;4412050;32;20191;-74
2022/01/26 07:35:01;;;;;;;5.60;5.15;;;;;;;1.49;88.55;102791.16;4417821;32;20980;-74
2022/01/26 07:37:27;;;;;;;2.90;2.80;;;;;;;1.49;88.10;102786.00;4420393;32;20073;-75
2022/01/26 07:40:07;;;;;;;5.80;5.47;;;;;;;1.40;87.51;102778.91;4409128;32;20095;-73
2022/01/26 07:42:33;;;;;;;2.97;2.87;;;;;;;1.35;87.37;102772.78;4419581;32;20532;-74
2022/01/26 07:44:59;;;;;;;3.92;3.72;;;;;;;1.35;86.85;102780.56;4410233;32;20132;-76
2022/01/26 07:47:24;;;;;;;7.70;4.60;;;;;;;1.46;87.21;102797.13;4417974;32;20241;-74
2022/01/26 07:49:54;;;;;;;5.28;5.05;;;;;;;1.38;86.84;102755.63;4410270;32;20084;-74
2022/01/26 07:52:19;;;;;;;3.92;3.72;;;;;;;1.52;87.25;102773.09;4405451;32;20098;-74
2022/01/26 07:54:45;;;;;;;5.72;5.43;;;;;;;1.55;87.07;102776.63;4412013;32;20595;-75
2022/01/26 07:57:11;;;;;;;3.37;3.28;;;;;;;1.54;86.71;102777.47;4420041;32;20289;-74
2022/01/26 07:59:36;;;;;;;2.83;2.72;;;;;;;1.55;87.00;102780.94;4415562;32;20697;-75
2022/01/26 08:02:02;;;;;;;4.18;3.97;;;;;;;-0.95;86.76;102426.22;4412862;32;20409;-74
2022/01/26 08:04:27;;;;;;;3.22;3.12;;;;;;;1.25;86.94;102730.34;4404422;32;20641;-75
2022/01/26 08:06:53;;;;;;;9.15;5.90;;;;;;;1.65;86.96;102798.38;4412912;32;20084;-75
2022/01/26 08:09:18;;;;;;;4.25;4.05;;;;;;;1.58;86.23;102802.56;4408180;32;20088;-74
2022/01/26 08:11:43;;;;;;;5.90;5.53;;;;;;;1.62;86.32;102807.78;4409491;32;20562;-75
2022/01/26 08:14:09;;;;;;;3.92;3.72;;;;;;;1.67;86.32;102790.66;4411701;32;20076;-75
2022/01/26 08:16:35;;;;;;;6.85;4.30;;;;;;;1.68;86.35;102782.03;4417339;32;20072;-74
2022/01/26 08:19:00;;;;;;;3.00;2.90;;;;;;;1.54;86.46;102725.72;4404612;32;20175;-75
2022/01/26 08:21:25;;;;;;;3.95;3.78;;;;;;;1.76;86.64;102775.25;4413515;32;20291;-74
2022/01/26 08:23:51;;;;;;;6.10;4.35;;;;;;;1.71;86.20;102789.84;4404765;32;20096;-73
2022/01/26 08:26:21;;;;;;;2.70;2.60;;;;;;;1.76;86.54;102785.63;4411721;32;20622;-74
2022/01/26 08:28:53;;;;;;;5.05;4.85;;;;;;;1.80;87.08;102795.19;4416471;32;20567;-73
2022/01/26 08:31:18;;;;;;;2.70;2.60;;;;;;;1.79;86.94;102802.09;4411576;32;20154;-74
2022/01/26 08:33:43;;;;;;;5.28;5.03;;;;;;;0.89;86.75;102669.31;4418846;32;20068;-74
2022/01/26 08:36:09;;;;;;;4.95;4.65;;;;;;;1.58;87.04;102756.00;4417784;32;20068;-75
2022/01/26 08:38:35;;;;;;;4.82;4.62;;;;;;;1.49;87.27;102732.53;4419272;32;20640;-73
2022/01/26 08:41:01;;;;;;;4.65;4.45;;;;;;;1.91;87.32;102816.09;4405817;32;21035;-73
2022/01/26 08:43:26;;;;;;;3.17;3.08;;;;;;;1.92;86.88;102823.00;4405881;32;20103;-73
2022/01/26 08:45:51;;;;;;;4.70;4.50;;;;;;;1.50;86.93;102735.97;4407956;32;20148;-74
2022/01/26 08:48:17;;;;;;;4.30;3.90;;;;;;;1.94;87.14;102819.59;4406234;32;20406;-73
2022/01/26 08:50:42;;;;;;;4.75;4.55;;;;;;;1.58;87.12;102761.16;4408325;32;20076;-74
2022/01/26 08:53:08;;;;;;;4.15;3.90;;;;;;;0.57;86.64;102610.13;4405366;32;20068;-74
2022/01/26 08:55:35;;;;;;;4.10;3.90;;;;;;;1.73;87.07;102807.16;4408206;32;20633;-74
2022/01/26 08:58:00;;;;;;;4.00;3.80;;;;;;;1.65;87.59;102797.50;4405375;32;20351;-73
2022/01/26 09:00:25;;;;;;;4.87;4.55;;;;;;;1.90;87.53;102851.47;4406080;32;20199;-72
2022/01/26 09:02:51;;;;;;;5.85;5.57;;;;;;;1.79;88.08;102838.31;4401996;32;20111;-73
2022/01/26 09:05:16;;;;;;;3.45;3.35;;;;;;;0.56;88.16;102612.66;4407520;32;20096;-74
2022/01/26 09:07:44;;;;;;;7.50;5.00;;;;;;;1.71;88.20;102807.97;4404692;32;20462;-73
2022/01/26 09:10:10;;;;;;;3.65;3.55;;;;;;;1.18;89.12;102724.19;4407331;32;20080;-75
2022/01/26 09:12:38;;;;;;;3.67;3.47;;;;;;;1.86;89.21;102856.56;4407395;32;20069;-73
2022/01/26 09:15:06;;;;;;;3.72;3.53;;;;;;;1.90;89.87;102841.09;4407498;32;20060;-76
2022/01/26 09:17:32;;;;;;;3.80;3.60;;;;;;;1.91;89.65;102840.28;4410700;32;20084;-76
2022/01/26 09:20:00;;;;;;;4.20;4.00;;;;;;;1.95;89.56;102843.78;4404623;32;20253;-75
2022/01/26 09:22:25;;;;;;;3.50;3.40;;;;;;;1.94;89.65;102840.31;4406705;32;20856;-76
2022/01/26 09:24:51;;;;;;;5.30;5.10;;;;;;;1.91;89.18;102840.28;4408111;32;20197;-76
2022/01/26 09:27:17;;;;;;;3.83;3.65;;;;;;;1.93;90.06;102836.00;4406462;32;20127;-76
2022/01/26 09:29:43;;;;;;;6.43;6.03;;;;;;;1.78;90.24;102820.16;4411642;32;20064;-75
2022/01/26 09:32:09;;;;;;;3.87;3.67;;;;;;;1.49;90.59;102797.22;4415090;32;20652;-74
2022/01/26 09:34:37;;;;;;;3.03;2.92;;;;;;;1.88;91.03;102845.38;4406284;32;20096;-73
2022/01/26 09:37:07;;;;;;;3.20;3.10;;;;;;;1.79;91.20;102845.22;4407127;32;20099;-74
2022/01/26 09:39:32;;;;;;;3.85;3.65;;;;;;;1.83;91.94;102844.44;4400651;32;20370;-74
2022/01/26 09:41:57;;;;;;;3.60;3.50;;;;;;;1.74;91.82;102839.94;4402126;32;20095;-74
2022/01/26 09:44:23;;;;;;;4.78;4.53;;;;;;;1.71;92.10;102823.50;4407504;32;20149;-74
2022/01/26 09:46:48;;;;;;;5.72;5.43;;;;;;;1.88;91.94;102847.97;4403280;32;20462;-74
2022/01/26 09:49:17;;;;;;;3.50;3.30;;;;;;;1.94;92.05;102850.66;4414773;32;20091;-74
2022/01/26 09:51:44;;;;;;;4.72;4.25;;;;;;;1.81;91.68;102837.50;4406071;32;20574;-74
2022/01/26 09:54:13;;;;;;;3.35;3.25;;;;;;;1.38;92.04;102765.06;4401484;32;20369;-74
2022/01/26 09:56:44;;;;;;;3.97;3.78;;;;;;;1.90;91.97;102851.47;4416076;32;20080;-75
2022/01/26 09:59:09;;;;;;;3.12;3.03;;;;;;;1.62;91.71;102806.06;4399900;32;20073;-73
2022/01/26 10:01:52;;;;;;;3.78;3.58;;;;;;;1.29;92.45;102764.91;4406545;32;20119;-75
2022/01/26 10:04:29;;;;;;;3.67;3.47;;;;;;;1.82;91.99;102828.88;4413769;32;20076;-74
2022/01/26 10:07:17;;;;;;;5.37;5.18;;;;;;;1.87;92.53;102841.06;4404109;32;20069;-73
2022/01/26 10:17:41;;;;;;;3.03;2.85;;;;;;;1.81;91.40;102798.66;4421343;32;20099;-75
2022/01/26 10:20:09;;;;;;;7.82;4.50;;;;;;;1.95;91.66;102839.47;4409880;32;20747;-74
2022/01/26 10:22:34;;;;;;;2.90;2.80;;;;;;;1.85;91.88;102810.81;4419151;32;20590;-73
2022/01/26 10:25:19;;;;;;;3.50;3.40;;;;;;;1.94;91.93;102801.47;4423874;32;21013;-74
2022/01/26 10:27:46;;;;;;;5.78;5.37;;;;;;;2.09;91.92;102828.50;4418261;32;20104;-74
2022/01/26 10:30:13;;;;;;;5.18;4.78;;;;;;;2.04;91.14;102833.59;4424085;32;20503;-74
2022/01/26 10:32:41;;;;;;;2.83;2.72;;;;;;;2.07;91.48;102827.59;4420735;32;20072;-74
2022/01/26 10:35:07;;;;;;;3.30;3.20;;;;;;;1.08;91.38;102648.97;4413331;32;20098;-74
2022/01/26 10:37:32;;;;;;;3.08;2.97;;;;;;;1.38;91.20;102677.13;4421030;32;20567;-74
2022/01/26 10:40:17;;;;;;;5.62;3.90;;;;;;;2.22;90.80;102832.16;4412144;32;20577;-73
2022/01/26 10:42:58;;;;;;;3.83;3.62;;;;;;;2.14;90.72;102826.84;4407975;32;20554;-73
2022/01/26 10:45:32;;;;;;;3.28;3.17;;;;;;;2.03;91.01;102797.31;4424712;32;20353;-73
2022/01/26 10:48:16;;;;;;;4.45;4.20;;;;;;;2.17;90.97;102832.97;4435511;32;20911;-74
2022/01/26 10:53:12;;;;;;;3.17;3.08;;;;;;;1.95;91.67;102831.72;4423681;32;20052;-74
2022/01/26 10:55:37;;;;;;;2.70;2.60;;;;;;;1.98;91.65;102828.28;4432042;32;20288;-73
2022/01/26 10:58:03;;;;;;;2.80;2.70;;;;;;;1.92;92.22;102787.62;4419072;32;20233;-73
2022/01/26 11:00:34;;;;;;;2.92;2.83;;;;;;;2.23;91.55;102801.12;4424353;32;20526;-73
2022/01/26 11:03:00;;;;;;;10.13;6.87;;;;;;;2.11;90.91;102813.88;4403195;32;20103;-73
2022/01/26 11:05:25;;;;;;;2.90;2.80;;;;;;;2.09;91.14;102794.84;4422973;32;20073;-74
2022/01/26 11:07:51;;;;;;;4.32;4.12;;;;;;;1.24;91.52;102644.97;4416644;32;20094;-73
2022/01/26 11:10:16;;;;;;;5.60;3.95;;;;;;;2.19;91.21;102833.84;4423046;32;20060;-73
2022/01/26 11:12:42;;;;;;;3.42;3.33;;;;;;;1.72;91.01;102727.75;4429541;32;20810;-75
2022/01/26 11:15:09;;;;;;;2.95;2.85;;;;;;;2.35;90.67;102829.81;4425915;32;20648;-75
2022/01/26 11:17:37;;;;;;;3.90;3.70;;;;;;;1.34;90.51;102646.87;4419231;32;20388;-72
2022/01/26 11:20:20;;;;;;;3.10;3.00;;;;;;;2.15;90.63;102806.16;4421272;32;20181;-74
2022/01/26 11:22:56;;;;;;;4.80;4.60;;;;;;;2.15;91.33;102833.78;4410724;32;20068;-74
2022/01/26 11:25:23;;;;;;;4.85;4.55;;;;;;;2.20;91.82;102814.00;4434395;32;20636;-74
2022/01/26 11:27:48;;;;;;;5.12;4.93;;;;;;;2.19;92.18;102846.81;4422442;32;20068;-74
2022/01/26 11:30:18;;;;;;;3.72;3.53;;;;;;;2.13;92.28;102838.06;4420916;32;20241;-74
2022/01/26 11:32:56;;;;;;;4.05;3.85;;;;;;;2.18;92.59;102839.87;4423712;32;20153;-74
2022/01/26 11:35:22;;;;;;;3.20;3.10;;;;;;;2.26;92.53;102844.31;4434404;32;20121;-73
2022/01/26 11:38:02;;;;;;;3.05;2.95;;;;;;;1.27;92.13;102684.69;4425973;32;20708;-73
2022/01/26 11:46:10;;;;;;;3.08;2.97;;;;;;;1.89;92.62;102802.25;4427409;32;20157;-73
2022/01/26 11:48:36;;;;;;;2.92;2.83;;;;;;;2.18;93.39;102849.38;4424294;32;20084;-73
2022/01/26 11:51:03;;;;;;;3.00;2.87;;;;;;;1.93;92.63;102793.69;4419686;32;20131;-74
2022/01/26 11:53:28;;;;;;;3.00;2.90;;;;;;;1.07;92.41;102650.72;4418702;32;20673;-73
2022/01/26 11:56:07;;;;;;;4.85;4.65;;;;;;;2.20;92.65;102839.91;4410740;32;20080;-73
2022/01/26 11:58:34;;;;;;;2.90;2.80;;;;;;;2.34;92.97;102840.13;4419938;32;20178;-74
2022/01/26 12:04:01;;;;;;;5.15;4.95;;;;;;;2.31;91.94;102828.00;4424397;32;20078;-72
2022/01/26 12:06:39;;;;;;;2.90;2.80;;;;;;;2.08;91.97;102826.75;4423471;32;20132;-73
2022/01/26 12:09:07;;;;;;;3.10;3.00;;;;;;;2.25;92.14;102822.72;4422877;32;20167;-73
2022/01/26 12:11:32;;;;;;;2.65;2.55;;;;;;;2.21;92.13;102812.31;4419582;32;20648;-76
2022/01/26 12:14:02;;;;;;;3.10;3.00;;;;;;;2.23;92.09;102831.34;4414038;32;20082;-73
2022/01/26 12:16:38;;;;;;;3.40;3.20;;;;;;;2.27;92.58;102818.44;4410384;32;20068;-74
2022/01/26 12:19:24;;;;;;;3.90;3.70;;;;;;;2.24;91.79;102831.34;4410929;32;20966;-75
2022/01/26 12:33:50;;;;;;;3.10;3.00;;;;;;;2.38;92.33;102816.87;4422882;32;20083;-73
2022/01/26 12:36:26;;;;;;;3.22;3.12;;;;;;;1.35;91.53;102648.62;4430722;32;20356;-74
2022/01/26 12:38:59;;;;;;;4.68;4.47;;;;;;;2.22;91.76;102781.22;4423546;32;20632;-74
2022/01/26 12:41:32;;;;;;;3.33;3.22;;;;;;;2.43;91.57;102798.84;4412689;32;20095;-74
2022/01/26 12:43:59;;;;;;;5.00;4.68;;;;;;;2.52;91.49;102785.13;4407712;32;20615;-74
2022/01/26 12:46:26;;;;;;;4.80;4.35;;;;;;;2.61;90.95;102795.66;4411633;32;20215;-75
2022/01/26 12:48:54;;;;;;;5.05;4.85;;;;;;;2.55;91.07;102793.84;4420181;32;20087;-73
2022/01/26 12:51:19;;;;;;;3.55;3.40;;;;;;;1.54;90.78;102635.16;4410134;32;20107;-74
2022/01/26 12:53:49;;;;;;;5.30;5.00;;;;;;;2.51;90.81;102793.78;4418172;32;20741;-74
2022/01/26 12:56:15;;;;;;;3.92;3.72;;;;;;;2.47;90.43;102798.03;4417508;32;20068;-74
2022/01/26 12:58:41;;;;;;;4.25;4.05;;;;;;;2.54;90.48;102793.81;4422095;32;20079;-74
2022/01/26 13:01:24;;;;;;;3.55;3.35;;;;;;;2.29;90.25;102767.53;4403504;32;20087;-73
2022/01/26 13:03:55;;;;;;;3.55;3.45;;;;;;;2.40;90.12;102786.69;4421832;32;20076;-73
2022/01/26 13:06:28;;;;;;;3.58;3.37;;;;;;;2.18;90.97;102758.69;4415656;32;20110;-75
2022/01/26 13:08:57;;;;;;;6.20;5.62;;;;;;;1.99;90.60;102704.03;4418609;32;20106;-74
2022/01/26 13:11:29;;;;;;;4.40;4.00;;;;;;;2.54;90.83;102799.00;4405074;32;20566;-74
2022/01/26 13:14:13;;;;;;;5.57;5.35;;;;;;;2.39;90.28;102782.37;4416474;32;20138;-74
2022/01/26 13:16:46;;;;;;;3.22;3.12;;;;;;;2.48;90.64;102796.31;4419037;32;20144;-74
2022/01/26 13:42:16;;;;;;;4.82;4.62;;;;;;;2.39;93.11;102774.59;4417305;32;20346;-73
2022/01/26 13:44:52;;;;;;;3.00;2.90;;;;;;;2.50;93.12;102766.09;4421182;32;20149;-73
2022/01/26 13:57:43;;;;;;;4.15;3.95;;;;;;;2.37;91.93;102736.56;4424512;32;20137;-72
2022/01/26 14:00:10;;;;;;;4.95;4.65;;;;;;;2.37;91.97;102726.19;4432286;32;20130;-75
2022/01/26 14:02:38;;;;;;;3.15;3.05;;;;;;;2.25;92.45;102694.94;4408831;32;20184;-73
2022/01/26 14:05:04;;;;;;;3.03;2.92;;;;;;;2.48;92.23;102722.00;4422685;32;20510;-76
2022/01/26 14:07:29;;;;;;;3.10;3.00;;;;;;;2.53;92.48;102738.50;4410944;32;20132;-73
2022/01/26 14:09:55;;;;;;;5.57;5.35;;;;;;;1.49;92.24;102547.97;4415000;32;20566;-74
2022/01/26 14:12:26;;;;;;;3.10;3.00;;;;;;;2.51;91.91;102734.16;4405501;32;20090;-73